createdAt,value
2016-08-28T00:00:44.554Z,1086.03
2016-08-28T00:01:44.560Z,1086.92
2016-08-28T00:02:44.558Z,1087.53
2016-08-28T00:03:44.562Z,1087.93
2016-08-28T00:04:44.559Z,1088.62
2016-08-28T00:05:44.553Z,1089.12
2016-08-28T00:06:44.561Z,1089.65
2016-08-28T00:07:44.560Z,1090.08
2016-08-28T00:08:44.564Z,1090.73
2016-08-28T00:09:44.587Z,1091.3
2016-08-28T00:10:44.573Z,1092
2016-08-28T00:11:44.579Z,1092.43
2016-08-28T00:12:44.573Z,1092.76
2016-08-28T00:13:44.578Z,1093.23
2016-08-28T00:14:44.577Z,1093.68
2016-08-28T00:15:44.575Z,1094.23
2016-08-28T00:16:44.584Z,1094.57
2016-08-28T00:17:44.590Z,1094.82
2016-08-28T00:18:44.593Z,1095.45
2016-08-28T00:19:44.574Z,1095.7
2016-08-28T00:20:44.597Z,1096.19
2016-08-28T00:21:44.573Z,1096.29
2016-08-28T00:22:44.581Z,1096.67
2016-08-28T00:23:44.685Z,1096.51
2016-08-28T00:24:44.581Z,1096.91
2016-08-28T00:25:44.573Z,1097.4
2016-08-28T00:26:44.576Z,1097.36
2016-08-28T00:27:44.585Z,1097.67
2016-08-28T00:28:44.591Z,1097.99
2016-08-28T00:29:44.582Z,1098.15
2016-08-28T00:30:44.610Z,1098.54
2016-08-28T00:31:44.582Z,1098.82
2016-08-28T00:32:44.592Z,1099.27
2016-08-28T00:33:44.689Z,1099.52
2016-08-28T00:34:44.595Z,1100.05
2016-08-28T00:35:44.594Z,1100.34
2016-08-28T00:36:44.593Z,1100.71
2016-08-28T00:37:44.603Z,1101.16
2016-08-28T00:38:44.599Z,1101.22
2016-08-28T00:39:44.598Z,1101.8
2016-08-28T00:40:44.593Z,1102.14
2016-08-28T00:41:44.614Z,1102.63
2016-08-28T00:42:44.611Z,1102.97
2016-08-28T00:43:44.599Z,1103.42
2016-08-28T00:44:44.607Z,1103.75
2016-08-28T00:45:44.609Z,1104.53
2016-08-28T00:46:44.604Z,1105.32
2016-08-28T00:47:44.604Z,1105.53
2016-08-28T00:48:44.619Z,1106.47
2016-08-28T00:49:44.604Z,1106.92
2016-08-28T00:50:44.654Z,1107.44
2016-08-28T00:51:44.603Z,1107.76
2016-08-28T00:52:44.611Z,1107.97
2016-08-28T00:53:44.622Z,1108.32
2016-08-28T00:54:44.635Z,1108.56
2016-08-28T00:55:44.614Z,1109.07
2016-08-28T00:56:44.609Z,1109.39
2016-08-28T00:57:44.630Z,1109.74
2016-08-28T00:58:44.607Z,1110.5
2016-08-28T00:59:44.621Z,1111.1
2016-08-28T01:00:44.625Z,1111.4
2016-08-28T01:01:44.610Z,1112.13
2016-08-28T01:02:44.607Z,1112.55
2016-08-28T01:03:44.622Z,1112.89
2016-08-28T01:04:44.632Z,1113.36
2016-08-28T01:05:44.610Z,1113.79
2016-08-28T01:06:44.622Z,1114.25
2016-08-28T01:07:44.639Z,1114.78
2016-08-28T01:08:44.622Z,1115.18
2016-08-28T01:09:44.622Z,1115.33
2016-08-28T01:10:44.624Z,1115.73
2016-08-28T01:11:44.623Z,1115.82
2016-08-28T01:12:44.626Z,1116.3
2016-08-28T01:13:44.637Z,1116.83
2016-08-28T01:14:44.630Z,1116.98
2016-08-28T01:15:44.636Z,1117.29
2016-08-28T01:16:44.628Z,1117.65
2016-08-28T01:17:44.639Z,1117.79
2016-08-28T01:18:44.637Z,1118.06
2016-08-28T01:19:44.643Z,1118.41
2016-08-28T01:20:44.637Z,1118.57
2016-08-28T01:21:44.637Z,1118.8
2016-08-28T01:22:44.658Z,1119.11
2016-08-28T01:23:44.655Z,1119.41
2016-08-28T01:24:44.642Z,1119.69
2016-08-28T01:25:44.641Z,1120.14
2016-08-28T01:26:44.662Z,1120.08
2016-08-28T01:27:44.638Z,1120.46
2016-08-28T01:28:44.656Z,1120.38
2016-08-28T01:29:44.636Z,1120.54
2016-08-28T01:30:44.673Z,1120.9
2016-08-28T01:31:44.657Z,1120.79
2016-08-28T01:32:44.657Z,1120.56
2016-08-28T01:33:44.657Z,1120.6
2016-08-28T01:34:44.655Z,1120.47
2016-08-28T01:35:44.649Z,1120.1
2016-08-28T01:36:44.655Z,1119.94
2016-08-28T01:37:44.652Z,1119.96
2016-08-28T01:38:44.655Z,1119.75
2016-08-28T01:39:44.655Z,1119.63
2016-08-28T01:40:44.663Z,1119.36
2016-08-28T01:41:44.654Z,1119.44
2016-08-28T01:42:44.674Z,1119.47
2016-08-28T01:43:44.659Z,1119.23
2016-08-28T01:44:44.671Z,1119.02
2016-08-28T01:45:44.675Z,1118.92
2016-08-28T01:46:44.658Z,1118.92
2016-08-28T01:47:44.671Z,1119.1
2016-08-28T01:48:44.673Z,1119.16
2016-08-28T01:49:44.669Z,1119.08
2016-08-28T01:50:44.678Z,1119.18
2016-08-28T01:51:44.689Z,1119.23
2016-08-28T01:52:44.688Z,1119.62
2016-08-28T01:53:44.681Z,1119.7
2016-08-28T01:54:44.674Z,1119.74
2016-08-28T01:55:44.671Z,1119.86
2016-08-28T01:56:44.668Z,1119.96
2016-08-28T01:57:44.674Z,1119.92
2016-08-28T01:58:44.685Z,1119.94
2016-08-28T01:59:44.673Z,1120.03
2016-08-28T02:00:44.687Z,1119.93
2016-08-28T02:01:44.683Z,1119.89
2016-08-28T02:02:44.671Z,1119.77
2016-08-28T02:03:44.687Z,1119.68
2016-08-28T02:04:44.686Z,1119.87
2016-08-28T02:05:44.680Z,1119.73
2016-08-28T02:06:44.686Z,1119.89
2016-08-28T02:07:44.685Z,1119.61
2016-08-28T02:08:44.689Z,1119.82
2016-08-28T02:09:44.700Z,1119.96
2016-08-28T02:10:44.686Z,1120.14
2016-08-28T02:11:44.695Z,1120.44
2016-08-28T02:12:44.687Z,1120.83
2016-08-28T02:13:44.687Z,1121.12
2016-08-28T02:14:44.698Z,1121.55
2016-08-28T02:15:44.689Z,1121.86
2016-08-28T02:16:44.702Z,1122.03
2016-08-28T02:17:44.693Z,1122.41
2016-08-28T02:18:44.707Z,1122.72
2016-08-28T02:19:44.686Z,1123.26
2016-08-28T02:20:44.705Z,1123.73
2016-08-28T02:21:44.703Z,1124.06
2016-08-28T02:22:44.712Z,1124.49
2016-08-28T02:23:44.703Z,1124.88
2016-08-28T02:24:44.695Z,1125.17
2016-08-28T02:25:44.717Z,1125.65
2016-08-28T02:26:44.705Z,1125.97
2016-08-28T02:27:44.725Z,1126.42
2016-08-28T02:28:44.704Z,1126.83
2016-08-28T02:29:44.709Z,1127.32
2016-08-28T02:30:44.732Z,1127.63
2016-08-28T02:31:44.703Z,1128.01
2016-08-28T02:32:44.716Z,1128.43
2016-08-28T02:33:44.704Z,1128.85
2016-08-28T02:34:44.718Z,1129.21
2016-08-28T02:35:44.716Z,1129.52
2016-08-28T02:36:44.709Z,1129.88
2016-08-28T02:37:44.718Z,1130.12
2016-08-28T02:38:44.721Z,1130.29
2016-08-28T02:39:44.732Z,1130.53
2016-08-28T02:40:44.731Z,1130.79
2016-08-28T02:41:44.717Z,1130.85
2016-08-28T02:42:44.725Z,1131.19
2016-08-28T02:43:44.729Z,1131.21
2016-08-28T02:44:44.724Z,1131.47
2016-08-28T02:45:44.724Z,1131.5
2016-08-28T02:46:44.742Z,1131.8
2016-08-28T02:47:44.740Z,1132.16
2016-08-28T02:48:44.730Z,1132.44
2016-08-28T02:49:44.726Z,1132.6
2016-08-28T02:50:44.724Z,1132.78
2016-08-28T02:51:44.740Z,1133.17
2016-08-28T02:52:44.734Z,1133.41
2016-08-28T02:53:44.732Z,1133.63
2016-08-28T02:54:44.725Z,1133.96
2016-08-28T02:55:44.735Z,1134.15
2016-08-28T02:56:44.733Z,1134.43
2016-08-28T02:57:44.736Z,1134.62
2016-08-28T02:58:44.735Z,1134.91
2016-08-28T02:59:44.748Z,1134.99
2016-08-28T03:00:44.732Z,1135.1
2016-08-28T03:01:44.741Z,1135.3
2016-08-28T03:02:44.739Z,1135.3
2016-08-28T03:03:44.752Z,1135.37
2016-08-28T03:04:44.754Z,1135.46
2016-08-28T03:05:44.734Z,1135.49
2016-08-28T03:06:44.740Z,1135.62
2016-08-28T03:07:44.732Z,1135.64
2016-08-28T03:08:44.755Z,1135.75
2016-08-28T03:09:44.751Z,1135.8
2016-08-28T03:10:44.751Z,1135.84
2016-08-28T03:11:44.743Z,1135.92
2016-08-28T03:12:44.752Z,1136.12
2016-08-28T03:13:44.751Z,1136.23
2016-08-28T03:14:44.751Z,1136.38
2016-08-28T03:15:44.757Z,1136.69
2016-08-28T03:16:44.767Z,1136.79
2016-08-28T03:17:44.757Z,1137.25
2016-08-28T03:18:44.753Z,1137.47
2016-08-28T03:19:44.770Z,1137.65
2016-08-28T03:20:44.749Z,1138.11
2016-08-28T03:21:44.755Z,1138.36
2016-08-28T03:22:44.765Z,1138.68
2016-08-28T03:23:44.769Z,1138.97
2016-08-28T03:24:44.759Z,1139.29
2016-08-28T03:25:44.767Z,1139.76
2016-08-28T03:26:44.767Z,1139.89
2016-08-28T03:27:44.766Z,1140.26
2016-08-28T03:28:44.773Z,1140.55
2016-08-28T03:29:44.762Z,1140.8
2016-08-28T03:30:44.782Z,1141.33
2016-08-28T03:31:44.776Z,1141.62
2016-08-28T03:32:44.784Z,1141.84
2016-08-28T03:33:44.775Z,1142.19
2016-08-28T03:34:44.769Z,1142.53
2016-08-28T03:35:44.776Z,1142.84
2016-08-28T03:36:44.770Z,1143.11
2016-08-28T03:37:44.783Z,1143.47
2016-08-28T03:38:44.770Z,1143.81
2016-08-28T03:39:44.770Z,1143.99
2016-08-28T03:40:44.782Z,1144.22
2016-08-28T03:41:44.771Z,1144.59
2016-08-28T03:42:44.769Z,1144.77
2016-08-28T03:43:44.788Z,1145.04
2016-08-28T03:44:44.782Z,1145.25
2016-08-28T03:45:44.778Z,1145.46
2016-08-28T03:46:44.783Z,1145.62
2016-08-28T03:47:44.787Z,1145.89
2016-08-28T03:48:44.778Z,1145.93
2016-08-28T03:49:44.785Z,1146.16
2016-08-28T03:50:44.792Z,1146.42
2016-08-28T03:51:44.780Z,1146.51
2016-08-28T03:52:44.786Z,1146.78
2016-08-28T03:53:44.779Z,1146.89
2016-08-28T03:54:44.799Z,1147.13
2016-08-28T03:55:44.810Z,1147.38
2016-08-28T03:56:44.787Z,1147.5
2016-08-28T03:57:44.797Z,1147.56
2016-08-28T03:58:44.828Z,1147.66
2016-08-28T03:59:44.793Z,1147.73
2016-08-28T04:00:44.800Z,1147.86
2016-08-28T04:01:44.794Z,1148.04
2016-08-28T04:02:44.797Z,1148.24
2016-08-28T04:03:44.804Z,1148.43
2016-08-28T04:04:44.795Z,1148.55
2016-08-28T04:05:44.795Z,1148.76
2016-08-28T04:06:44.811Z,1148.95
2016-08-28T04:07:44.801Z,1149.18
2016-08-28T04:08:44.808Z,1149.2
2016-08-28T04:09:44.815Z,1149.34
2016-08-28T04:10:44.814Z,1149.52
2016-08-28T04:11:44.815Z,1149.74
2016-08-28T04:12:44.813Z,1149.85
2016-08-28T04:13:44.804Z,1150.09
2016-08-28T04:14:44.811Z,1150.14
2016-08-28T04:15:44.814Z,1150.28
2016-08-28T04:16:44.818Z,1150.41
2016-08-28T04:17:44.808Z,1150.54
2016-08-28T04:18:44.804Z,1150.65
2016-08-28T04:19:44.812Z,1150.78
2016-08-28T04:20:44.801Z,1150.85
2016-08-28T04:21:44.814Z,1150.93
2016-08-28T04:22:44.815Z,1151.02
2016-08-28T04:23:44.815Z,1151.09
2016-08-28T04:24:44.828Z,1151.2
2016-08-28T04:25:44.823Z,1151.41
2016-08-28T04:26:44.830Z,1151.53
2016-08-28T04:27:44.837Z,1151.71
2016-08-28T04:28:44.825Z,1151.88
2016-08-28T04:29:44.822Z,1152.1
2016-08-28T04:30:44.856Z,1152.27
2016-08-28T04:31:44.833Z,1152.45
2016-08-28T04:32:44.829Z,1152.58
2016-08-28T04:33:44.835Z,1152.65
2016-08-28T04:34:44.826Z,1152.79
2016-08-28T04:35:44.825Z,1152.88
2016-08-28T04:36:44.833Z,1153.02
2016-08-28T04:37:44.831Z,1153.01
2016-08-28T04:38:44.827Z,1153.04
2016-08-28T04:39:44.828Z,1153.07
2016-08-28T04:40:44.827Z,1153.05
2016-08-28T04:41:44.829Z,1153.06
2016-08-28T04:42:44.857Z,1153.12
2016-08-28T04:43:44.843Z,1153.15
2016-08-28T04:44:44.870Z,1153.19
2016-08-28T04:45:44.846Z,1153.19
2016-08-28T04:46:44.849Z,1153.16
2016-08-28T04:47:44.842Z,1153.2
2016-08-28T04:48:44.878Z,1153.17
2016-08-28T04:49:44.846Z,1153.13
2016-08-28T04:50:44.849Z,1153.12
2016-08-28T04:51:44.849Z,1153.09
2016-08-28T04:52:44.848Z,1153.08
2016-08-28T04:53:44.853Z,1153.01
2016-08-28T04:54:44.848Z,1152.96
2016-08-28T04:55:44.839Z,1152.87
2016-08-28T04:56:44.847Z,1152.84
2016-08-28T04:57:44.846Z,1152.81
2016-08-28T04:58:44.845Z,1152.74
2016-08-28T04:59:44.847Z,1152.61
2016-08-28T05:00:44.854Z,1152.66
2016-08-28T05:01:44.844Z,1152.59
2016-08-28T05:02:44.848Z,1152.48
2016-08-28T05:03:44.860Z,1152.46
2016-08-28T05:04:44.851Z,1152.36
2016-08-28T05:05:44.845Z,1152.24
2016-08-28T05:06:44.871Z,1152.19
2016-08-28T05:07:44.866Z,1152.14
2016-08-28T05:08:44.862Z,1152.09
2016-08-28T05:09:44.862Z,1151.97
2016-08-28T05:10:44.867Z,1151.91
2016-08-28T05:11:44.861Z,1151.8
2016-08-28T05:12:44.869Z,1151.71
2016-08-28T05:13:44.861Z,1151.59
2016-08-28T05:14:44.863Z,1151.52
2016-08-28T05:15:44.871Z,1151.4
2016-08-28T05:16:44.876Z,1151.23
2016-08-28T05:17:44.882Z,1151.16
2016-08-28T05:18:44.877Z,1151.07
2016-08-28T05:19:44.879Z,1150.98
2016-08-28T05:20:44.877Z,1150.81
2016-08-28T05:21:44.876Z,1150.65
2016-08-28T05:22:44.875Z,1150.57
2016-08-28T05:23:44.876Z,1150.44
2016-08-28T05:24:44.867Z,1150.35
2016-08-28T05:25:44.878Z,1150.1
2016-08-28T05:26:44.876Z,1149.98
2016-08-28T05:27:44.869Z,1149.78
2016-08-28T05:28:44.878Z,1149.53
2016-08-28T05:29:44.869Z,1149.3
2016-08-28T05:30:44.912Z,1148.96
2016-08-28T05:31:44.882Z,1148.76
2016-08-28T05:32:44.893Z,1148.43
2016-08-28T05:33:44.897Z,1148.25
2016-08-28T05:34:44.882Z,1147.97
2016-08-28T05:35:44.886Z,1147.77
2016-08-28T05:36:44.890Z,1147.64
2016-08-28T05:37:44.883Z,1147.52
2016-08-28T05:38:44.896Z,1147.39
2016-08-28T05:39:44.892Z,1147.25
2016-08-28T05:40:44.890Z,1147.12
2016-08-28T05:41:44.894Z,1146.89
2016-08-28T05:42:44.892Z,1146.79
2016-08-28T05:43:44.898Z,1146.49
2016-08-28T05:44:44.905Z,1146.37
2016-08-28T05:45:44.898Z,1146.19
2016-08-28T05:46:44.914Z,1145.96
2016-08-28T05:47:44.893Z,1145.85
2016-08-28T05:48:44.907Z,1145.71
2016-08-28T05:49:44.909Z,1145.56
2016-08-28T05:50:44.901Z,1145.5
2016-08-28T05:51:44.906Z,1145.29
2016-08-28T05:52:44.897Z,1145.14
2016-08-28T05:53:44.908Z,1144.82
2016-08-28T05:54:44.911Z,1144.47
2016-08-28T05:55:44.937Z,1144.26
2016-08-28T05:56:44.910Z,1144.04
2016-08-28T05:57:44.917Z,1143.69
2016-08-28T05:58:44.907Z,1143.42
2016-08-28T05:59:44.918Z,1143.19
2016-08-28T06:00:44.907Z,1142.81
2016-08-28T06:01:44.899Z,1142.52
2016-08-28T06:02:44.911Z,1142.21
2016-08-28T06:03:44.912Z,1142.1
2016-08-28T06:04:44.920Z,1141.82
2016-08-28T06:05:44.910Z,1141.39
2016-08-28T06:06:44.915Z,1141.1
2016-08-28T06:07:44.921Z,1140.7
2016-08-28T06:08:44.910Z,1140.26
2016-08-28T06:09:44.929Z,1139.67
2016-08-28T06:10:44.931Z,1139.24
2016-08-28T06:11:44.917Z,1138.62
2016-08-28T06:12:44.927Z,1137.98
2016-08-28T06:13:44.924Z,1137.44
2016-08-28T06:14:44.925Z,1136.77
2016-08-28T06:15:44.928Z,1136.22
2016-08-28T06:16:44.923Z,1135.55
2016-08-28T06:17:44.941Z,1134.73
2016-08-28T06:18:44.926Z,1133.99
2016-08-28T06:19:44.939Z,1133.05
2016-08-28T06:20:44.928Z,1132.31
2016-08-28T06:21:44.941Z,1131.34
2016-08-28T06:22:44.931Z,1130.48
2016-08-28T06:23:44.939Z,1129.68
2016-08-28T06:24:44.941Z,1128.75
2016-08-28T06:25:44.941Z,1127.73
2016-08-28T06:26:44.946Z,1126.78
2016-08-28T06:27:44.941Z,1125.95
2016-08-28T06:28:44.940Z,1125.16
2016-08-28T06:29:44.976Z,1124.16
2016-08-28T06:30:44.950Z,1123.19
2016-08-28T06:31:44.942Z,1122.19
2016-08-28T06:32:44.995Z,1121.42
2016-08-28T06:33:44.941Z,1120.41
2016-08-28T06:34:44.961Z,1119.5
2016-08-28T06:35:44.940Z,1118.38
2016-08-28T06:36:44.955Z,1117.47
2016-08-28T06:37:44.946Z,1116.32
2016-08-28T06:38:44.956Z,1115.25
2016-08-28T06:39:44.944Z,1114.34
2016-08-28T06:40:44.962Z,1113.11
2016-08-28T06:41:44.957Z,1112.09
2016-08-28T06:42:44.956Z,1111.15
2016-08-28T06:43:44.988Z,1109.86
2016-08-28T06:44:45.016Z,1108.68
2016-08-28T06:45:44.972Z,1107.6
2016-08-28T06:46:44.960Z,1106.56
2016-08-28T06:47:44.972Z,1105.4
2016-08-28T06:48:44.961Z,1104.02
2016-08-28T06:49:44.962Z,1102.95
2016-08-28T06:50:44.960Z,1101.74
2016-08-28T06:51:44.959Z,1100.56
2016-08-28T06:52:45.003Z,1099.65
2016-08-28T06:53:44.959Z,1098.41
2016-08-28T06:54:44.982Z,1097.23
2016-08-28T06:55:44.956Z,1096.17
2016-08-28T06:56:44.967Z,1094.95
2016-08-28T06:57:44.956Z,1093.99
2016-08-28T06:58:44.965Z,1092.78
2016-08-28T06:59:44.973Z,1091.52
2016-08-28T07:00:44.977Z,1090.64
2016-08-28T07:01:44.972Z,1089.33
2016-08-28T07:02:44.991Z,1088.14
2016-08-28T07:03:44.981Z,1086.81
2016-08-28T07:04:44.973Z,1085.5
2016-08-28T07:05:44.981Z,1084.25
2016-08-28T07:06:44.973Z,1083.01
2016-08-28T07:07:44.983Z,1081.64
2016-08-28T07:08:44.973Z,1080.46
2016-08-28T07:09:45.287Z,1078.84
2016-08-28T07:10:44.986Z,1077.57
2016-08-28T07:11:45.021Z,1076.19
2016-08-28T07:12:44.998Z,1074.94
2016-08-28T07:13:44.979Z,1073.34
2016-08-28T07:14:44.991Z,1071.98
2016-08-28T07:15:44.988Z,1070.73
2016-08-28T07:16:44.983Z,1069.41
2016-08-28T07:17:44.992Z,1068.13
2016-08-28T07:18:44.994Z,1066.35
2016-08-28T07:19:44.990Z,1064.99
2016-08-28T07:20:44.982Z,1063.9
2016-08-28T07:21:44.989Z,1062.34
2016-08-28T07:22:44.993Z,1060.91
2016-08-28T07:23:44.995Z,1059.73
2016-08-28T07:24:45.007Z,1058.2
2016-08-28T07:25:45.004Z,1056.66
2016-08-28T07:26:44.993Z,1055.2
2016-08-28T07:27:45.010Z,1053.76
2016-08-28T07:28:45.003Z,1052.34
2016-08-28T07:29:44.990Z,1050.93
2016-08-28T07:30:45.017Z,1049.68
2016-08-28T07:31:45.014Z,1047.81
2016-08-28T07:32:45.042Z,1046.46
2016-08-28T07:33:45.005Z,1044.76
2016-08-28T07:34:44.991Z,1043.39
2016-08-28T07:35:45.034Z,1041.79
2016-08-28T07:36:45.008Z,1040.1
2016-08-28T07:37:45.005Z,1038.5
2016-08-28T07:38:45.032Z,1036.93
2016-08-28T07:39:45.060Z,1035.05
2016-08-28T07:40:45.018Z,1033.31
2016-08-28T07:41:45.005Z,1031.65
2016-08-28T07:42:45.036Z,1030.18
2016-08-28T07:43:45.050Z,1028.59
2016-08-28T07:44:45.020Z,1027.03
2016-08-28T07:45:45.020Z,1025.54
2016-08-28T07:46:45.621Z,1023.46
2016-08-28T07:47:45.030Z,1021.25
2016-08-28T07:48:45.018Z,1019.83
2016-08-28T07:49:45.020Z,1017.75
2016-08-28T07:50:45.021Z,1016.03
2016-08-28T07:51:45.028Z,1014.04
2016-08-28T07:52:45.021Z,1012.06
2016-08-28T07:53:45.034Z,1009.79
2016-08-28T07:54:45.126Z,1007.73
2016-08-28T07:55:45.022Z,1005.43
2016-08-28T07:56:45.029Z,1003.12
2016-08-28T07:57:45.037Z,1001.39
2016-08-28T07:58:45.036Z,998.85
2016-08-28T07:59:45.629Z,996.28
2016-08-28T08:00:45.034Z,994.12
2016-08-28T08:01:45.041Z,991.72
2016-08-28T08:02:45.050Z,989.42
2016-08-28T08:03:45.036Z,987.58
2016-08-28T08:04:45.043Z,985.47
2016-08-28T08:05:45.051Z,983.27
2016-08-28T08:06:45.045Z,980.35
2016-08-28T08:07:45.036Z,978.34
2016-08-28T08:08:45.038Z,975.89
2016-08-28T08:09:45.080Z,973.69
2016-08-28T08:10:45.082Z,971.73
2016-08-28T08:11:45.105Z,969.17
2016-08-28T08:12:45.061Z,966.99
2016-08-28T08:13:45.135Z,964.71
2016-08-28T08:14:45.039Z,962.33
2016-08-28T08:15:45.055Z,960.17
2016-08-28T08:16:45.069Z,958.21
2016-08-28T08:17:45.073Z,955.9
2016-08-28T08:18:45.054Z,953.48
2016-08-28T08:19:45.087Z,951.49
2016-08-28T08:20:45.102Z,949.45
2016-08-28T08:21:45.063Z,947.66
2016-08-28T08:22:45.069Z,946.08
2016-08-28T08:23:45.067Z,944.93
2016-08-28T08:24:45.107Z,943.45
2016-08-28T08:25:45.105Z,941.66
2016-08-28T08:26:45.071Z,939.72
2016-08-28T08:27:45.068Z,938.12
2016-08-28T08:28:45.073Z,936.66
2016-08-28T08:29:45.069Z,935.08
2016-08-28T08:30:45.100Z,933.59
2016-08-28T08:31:45.067Z,931.73
2016-08-28T08:32:45.070Z,929.77
2016-08-28T08:33:45.069Z,928.94
2016-08-28T08:34:45.068Z,927.55
2016-08-28T08:35:45.074Z,926.57
2016-08-28T08:36:45.069Z,925.08
2016-08-28T08:37:45.074Z,923.57
2016-08-28T08:38:45.088Z,922.45
2016-08-28T08:39:45.082Z,920.95
2016-08-28T08:40:45.077Z,919.95
2016-08-28T08:41:45.188Z,918.79
2016-08-28T08:42:45.089Z,918.02
2016-08-28T08:43:45.082Z,916.55
2016-08-28T08:44:45.083Z,915.62
2016-08-28T08:45:45.078Z,914.95
2016-08-28T08:46:45.088Z,913.19
2016-08-28T08:47:45.085Z,912.16
2016-08-28T08:48:45.090Z,910.88
2016-08-28T08:49:45.109Z,909.7
2016-08-28T08:50:45.098Z,907.99
2016-08-28T08:51:45.105Z,906.4
2016-08-28T08:52:45.133Z,905.6
2016-08-28T08:53:45.099Z,903.91
2016-08-28T08:54:45.295Z,902.48
2016-08-28T08:55:45.101Z,901.17
2016-08-28T08:56:45.105Z,899.75
2016-08-28T08:57:45.095Z,898.16
2016-08-28T08:58:45.104Z,896.68
2016-08-28T08:59:45.102Z,894.84
2016-08-28T09:00:45.103Z,892.87
2016-08-28T09:01:45.097Z,890.75
2016-08-28T09:02:45.116Z,889.55
2016-08-28T09:03:45.106Z,887.91
2016-08-28T09:04:45.101Z,886.51
2016-08-28T09:05:45.098Z,884.24
2016-08-28T09:06:45.150Z,882.61
2016-08-28T09:07:45.210Z,881.11
2016-08-28T09:08:45.116Z,878.64
2016-08-28T09:09:45.203Z,876.75
2016-08-28T09:10:45.129Z,875.28
2016-08-28T09:11:45.235Z,872.95
2016-08-28T09:12:45.107Z,871.3
2016-08-28T09:13:45.114Z,869.18
2016-08-28T09:14:45.112Z,867.53
2016-08-28T09:15:45.132Z,865.96
2016-08-28T09:16:45.136Z,863.91
2016-08-28T09:17:45.145Z,862.35
2016-08-28T09:18:45.130Z,860.65
2016-08-28T09:19:45.126Z,859.11
2016-08-28T09:20:45.119Z,857.27
2016-08-28T09:21:45.124Z,855.28
2016-08-28T09:22:45.120Z,853.86
2016-08-28T09:23:45.130Z,851.88
2016-08-28T09:24:45.144Z,850.88
2016-08-28T09:25:45.136Z,849.12
2016-08-28T09:26:45.131Z,847.27
2016-08-28T09:27:45.197Z,845.53
2016-08-28T09:28:45.123Z,843.99
2016-08-28T09:29:45.129Z,842.68
2016-08-28T09:30:45.144Z,841.07
2016-08-28T09:31:45.146Z,839.87
2016-08-28T09:32:45.135Z,837.74
2016-08-28T09:33:45.130Z,836.23
2016-08-28T09:34:45.136Z,834.33
2016-08-28T09:35:45.145Z,832.14
2016-08-28T09:36:45.145Z,830.02
2016-08-28T09:37:45.145Z,827.93
2016-08-28T09:38:45.163Z,825.88
2016-08-28T09:39:56.684Z,823.9
2016-08-28T09:40:56.713Z,821.82
2016-08-28T09:41:56.067Z,820.3
2016-08-28T09:42:56.068Z,818.06
2016-08-28T09:44:07.921Z,816.38
2016-08-28T09:45:27.469Z,814.25
2016-08-28T09:46:28.916Z,812.15
2016-08-28T09:47:53.392Z,809.58
2016-08-28T09:49:17.643Z,806.96
2016-08-28T09:50:41.995Z,804.49
2016-08-28T09:51:41.390Z,802.95
2016-08-28T09:52:55.413Z,799.43
2016-08-28T09:54:01.047Z,797.42
2016-08-28T09:55:11.226Z,794.94
2016-08-28T09:56:00.252Z,792.56
2016-08-28T09:57:00.265Z,790.87
2016-08-28T09:58:00.273Z,787.72
2016-08-28T09:59:00.257Z,786.1
2016-08-28T10:00:00.240Z,784.05
2016-08-28T10:01:00.280Z,782.01
2016-08-28T10:02:00.258Z,780.41
2016-08-28T10:03:00.264Z,778.48
2016-08-28T10:04:00.263Z,776.43
2016-08-28T10:05:00.257Z,774.98
2016-08-28T10:06:00.251Z,773.55
2016-08-28T10:07:00.260Z,771.31
2016-08-28T10:08:00.260Z,770.17
2016-08-28T10:09:00.255Z,769.04
2016-08-28T10:10:00.261Z,767.44
2016-08-28T10:11:00.260Z,765.46
2016-08-28T10:12:00.298Z,764.99
2016-08-28T10:13:00.290Z,763.68
2016-08-28T10:14:00.265Z,762.56
2016-08-28T10:15:00.269Z,761.25
2016-08-28T10:16:00.269Z,760.03
2016-08-28T10:17:00.269Z,759.07
2016-08-28T10:18:00.271Z,757.25
2016-08-28T10:19:00.253Z,756.65
2016-08-28T10:20:00.264Z,756.19
2016-08-28T10:21:00.266Z,755.71
2016-08-28T10:22:00.292Z,755.03
2016-08-28T10:23:00.284Z,753.72
2016-08-28T10:24:00.276Z,752.82
2016-08-28T10:25:00.284Z,751.37
2016-08-28T10:26:07.106Z,749.41
2016-08-28T10:27:18.867Z,747.52
2016-08-28T10:28:08.235Z,745.23
2016-08-28T10:29:20.545Z,744.2
2016-08-28T10:30:44.343Z,741.42
2016-08-28T10:32:09.319Z,739.54
2016-08-28T10:33:32.847Z,736.89
2016-08-28T10:34:56.834Z,735.46
2016-08-28T10:36:18.994Z,733.11
2016-08-28T10:37:39.406Z,731.37
2016-08-28T10:39:01.312Z,729.68
2016-08-28T10:40:24.503Z,727.67
2016-08-28T10:41:45.771Z,725.64
2016-08-28T10:43:05.820Z,723.41
2016-08-28T10:44:05.981Z,722.56
2016-08-28T10:45:18.326Z,721.2
2016-08-28T10:46:31.792Z,719.48
2016-08-28T10:47:34.159Z,718.11
2016-08-28T10:48:41.885Z,714.84
2016-08-28T10:49:37.441Z,713.62
2016-08-28T10:50:37.440Z,711.91
2016-08-28T10:51:37.464Z,710
2016-08-28T10:52:37.439Z,708.1
2016-08-28T10:53:37.498Z,705.83
2016-08-28T10:54:37.449Z,702.81
2016-08-28T10:55:37.475Z,701.76
2016-08-28T10:56:37.450Z,701.56
2016-08-28T10:57:37.487Z,700.88
2016-08-28T10:58:37.448Z,700.2
2016-08-28T10:59:37.443Z,698.63
2016-08-28T11:00:37.462Z,696.19
2016-08-28T11:01:37.455Z,694.53
2016-08-28T11:02:37.455Z,692.12
2016-08-28T11:03:37.467Z,689.82
2016-08-28T11:04:37.441Z,687.03
2016-08-28T11:05:37.451Z,683.83
2016-08-28T11:06:37.473Z,681.3
2016-08-28T11:07:37.459Z,679.02
2016-08-28T11:08:37.473Z,676.7
2016-08-28T11:09:37.463Z,674.77
2016-08-28T11:10:37.455Z,673.33
2016-08-28T11:11:37.456Z,671.5
2016-08-28T11:12:37.465Z,668.66
2016-08-28T11:13:37.452Z,666.49
2016-08-28T11:14:37.457Z,663.74
2016-08-28T11:15:37.471Z,661.62
2016-08-28T11:16:37.518Z,659.09
2016-08-28T11:17:37.473Z,656.37
2016-08-28T11:18:37.466Z,654.69
2016-08-28T11:19:37.511Z,652.17
2016-08-28T11:20:37.490Z,650.33
2016-08-28T11:21:37.482Z,648.86
2016-08-28T11:22:37.474Z,645.94
2016-08-28T11:23:37.474Z,644.64
2016-08-28T11:24:37.470Z,644.31
2016-08-28T11:25:37.494Z,643.39
2016-08-28T11:26:37.482Z,643.03
2016-08-28T11:27:37.538Z,644.12
2016-08-28T11:28:37.482Z,645.28
2016-08-28T11:29:37.489Z,646
2016-08-28T11:30:37.495Z,646.76
2016-08-28T11:31:37.525Z,646.18
2016-08-28T11:32:37.493Z,646.74
2016-08-28T11:33:37.488Z,647.82
2016-08-28T11:34:37.520Z,648.95
2016-08-28T11:35:37.489Z,649.52
2016-08-28T11:36:37.493Z,649.66
2016-08-28T11:37:37.489Z,649.3
2016-08-28T11:38:37.506Z,648.01
2016-08-28T11:39:37.490Z,646.74
2016-08-28T11:40:37.495Z,645.44
2016-08-28T11:41:38.019Z,643.99
2016-08-28T11:42:37.490Z,643.77
2016-08-28T11:43:37.495Z,642.54
2016-08-28T11:44:37.506Z,641.58
2016-08-28T11:45:37.505Z,641.78
2016-08-28T11:46:37.501Z,640.98
2016-08-28T11:47:37.511Z,640.45
2016-08-28T11:48:37.503Z,639.36
2016-08-28T11:49:37.516Z,639.09
2016-08-28T11:50:37.515Z,639.32
2016-08-28T11:51:37.700Z,639.36
2016-08-28T11:52:37.509Z,637.99
2016-08-28T11:53:37.499Z,637.66
2016-08-28T11:54:37.522Z,636.52
2016-08-28T11:55:37.521Z,637.29
2016-08-28T11:56:37.529Z,635.63
2016-08-28T11:57:37.552Z,633.05
2016-08-28T11:58:37.519Z,629.14
2016-08-28T11:59:38.084Z,628.39
2016-08-28T12:00:37.521Z,629.88
2016-08-28T12:01:37.525Z,633.71
2016-08-28T12:02:37.521Z,640.2
2016-08-28T12:03:37.521Z,644.08
2016-08-28T12:04:37.514Z,646.32
2016-08-28T12:05:37.521Z,646.45
2016-08-28T12:06:37.537Z,648.2
2016-08-28T12:07:37.522Z,647.11
2016-08-28T12:08:37.536Z,645.25
2016-08-28T12:09:37.535Z,643.18
2016-08-28T12:10:37.536Z,640.99
2016-08-28T12:11:37.535Z,639.87
2016-08-28T12:12:37.536Z,639.78
2016-08-28T12:13:37.533Z,638.83
2016-08-28T12:14:37.583Z,637.2
2016-08-28T12:15:37.532Z,636.09
2016-08-28T12:16:37.543Z,636.11
2016-08-28T12:17:37.544Z,636.65
2016-08-28T12:18:37.540Z,637.77
2016-08-28T12:19:37.547Z,638.29
2016-08-28T12:20:37.538Z,638.43
2016-08-28T12:21:37.544Z,639.76
2016-08-28T12:22:37.594Z,641.4